createdAt,value
2022-10-22T00:01:45.639Z,100594.25
2022-10-22T00:04:48.688Z,100584.84
2022-10-22T00:07:50.770Z,100580.06
2022-10-22T00:10:53.263Z,100576.53
2022-10-22T00:13:55.351Z,100584.97
2022-10-22T00:17:00.918Z,100582.06
2022-10-22T00:20:03.129Z,100583.56
2022-10-22T00:23:06.115Z,100584.19
2022-10-22T00:26:08.450Z,100580.91
2022-10-22T00:29:11.019Z,100573.25
2022-10-22T00:32:13.223Z,100572.53
2022-10-22T00:35:15.772Z,100577.72
2022-10-22T00:38:17.777Z,100572.81
2022-10-22T00:41:20.459Z,100566.22
2022-10-22T00:44:41.331Z,100562.31
2022-10-22T00:47:50.773Z,100568.19
2022-10-22T00:50:59.693Z,100562.31
2022-10-22T00:54:04.780Z,100559.53
2022-10-22T00:57:06.800Z,100547.41
2022-10-22T01:00:09.552Z,100549.22
2022-10-22T01:03:11.600Z,100562.03
2022-10-22T01:06:18.808Z,100559.91
2022-10-22T01:09:39.775Z,100564.34
2022-10-22T01:12:45.075Z,100565.28
2022-10-22T01:15:59.325Z,100564.94
2022-10-22T01:19:13.990Z,100566.03
2022-10-22T01:22:23.297Z,100562.31
2022-10-22T01:25:31.633Z,100566.88
2022-10-22T01:28:51.751Z,100566.37
2022-10-22T01:31:58.124Z,100557.12
2022-10-22T01:35:02.836Z,100556.81
2022-10-22T01:38:07.695Z,100555.56
2022-10-22T01:41:11.023Z,100561.00
2022-10-22T01:44:24.160Z,100563.66
2022-10-22T01:47:39.531Z,100552.47
2022-10-22T01:50:48.447Z,100551.19
2022-10-22T01:54:07.322Z,100538.66
2022-10-22T01:57:09.722Z,100543.25
2022-10-22T02:00:13.620Z,100536.88
2022-10-22T02:03:23.677Z,100533.81
2022-10-22T02:06:28.780Z,100542.41
2022-10-22T02:09:32.110Z,100536.50
2022-10-22T02:12:35.193Z,100536.16
2022-10-22T02:15:38.630Z,100533.84
2022-10-22T02:18:42.522Z,100539.78
2022-10-22T02:21:45.567Z,100549.19
2022-10-22T02:24:48.752Z,100547.31
2022-10-22T02:27:59.508Z,100547.03
2022-10-22T02:31:06.310Z,100550.56
2022-10-22T02:34:11.221Z,100543.97
2022-10-22T02:37:13.855Z,100541.41
2022-10-22T02:40:18.325Z,100549.69
2022-10-22T02:43:20.266Z,100540.59
2022-10-22T02:46:23.066Z,100527.44
2022-10-22T02:49:25.112Z,100539.63
2022-10-22T02:52:27.432Z,100541.00
2022-10-22T02:55:29.679Z,100551.53
2022-10-22T02:58:32.160Z,100568.09
2022-10-22T03:01:34.252Z,100567.66
2022-10-22T03:04:36.565Z,100560.25
2022-10-22T03:07:38.685Z,100563.63
2022-10-22T03:10:41.283Z,100557.16
2022-10-22T03:13:43.266Z,100560.62
2022-10-22T03:16:45.550Z,100560.84
2022-10-22T03:19:47.572Z,100564.53
2022-10-22T03:22:49.945Z,100562.47
2022-10-22T03:25:51.945Z,100542.97
2022-10-22T03:28:54.558Z,100543.88
2022-10-22T03:31:56.577Z,100542.56
2022-10-22T03:38:01.443Z,100529.00
2022-10-22T03:41:03.892Z,100517.94
2022-10-22T03:44:06.004Z,100508.13
2022-10-22T03:47:08.424Z,100508.44
2022-10-22T03:50:10.510Z,100506.84
2022-10-22T03:53:12.832Z,100508.13
2022-10-22T03:56:15.058Z,100498.59
2022-10-22T03:59:17.388Z,100514.44
2022-10-22T04:02:19.428Z,100516.66
2022-10-22T04:05:21.728Z,100523.00
2022-10-22T04:08:23.769Z,100531.87
2022-10-22T04:11:26.093Z,100534.06
2022-10-22T04:14:28.160Z,100533.78
2022-10-22T04:17:34.739Z,100542.31
2022-10-22T04:20:36.827Z,100523.94
2022-10-22T04:23:39.576Z,100526.59
2022-10-22T04:26:41.661Z,100534.00
2022-10-22T04:29:44.026Z,100536.34
2022-10-22T04:32:46.309Z,100543.13
2022-10-22T04:35:48.659Z,100530.12
2022-10-22T04:38:55.690Z,100530.44
2022-10-22T04:41:58.021Z,100533.19
2022-10-22T04:45:00.095Z,100523.00
2022-10-22T04:48:02.492Z,100522.56
2022-10-22T04:51:06.559Z,100523.75
2022-10-22T04:54:08.933Z,100525.66
2022-10-22T04:57:10.929Z,100500.94
2022-10-22T05:00:13.508Z,100506.72
2022-10-22T05:03:15.485Z,100517.50
2022-10-22T05:06:18.265Z,100523.31
2022-10-22T05:09:20.662Z,100514.63
2022-10-22T05:12:23.108Z,100527.66
2022-10-22T05:15:25.108Z,100531.78
2022-10-22T05:18:27.383Z,100528.06
2022-10-22T05:21:29.761Z,100520.12
2022-10-22T05:24:32.885Z,100520.91
2022-10-22T05:27:34.867Z,100522.28
2022-10-22T05:30:37.255Z,100523.34
2022-10-22T05:33:39.642Z,100521.78
2022-10-22T05:36:42.265Z,100536.69
2022-10-22T05:39:44.208Z,100531.72
2022-10-22T05:42:46.539Z,100528.28
2022-10-22T05:45:48.554Z,100526.88
2022-10-22T05:48:59.287Z,100520.75
2022-10-22T05:52:01.248Z,100517.66
2022-10-22T05:55:03.769Z,100520.84
2022-10-22T05:58:06.262Z,100526.19
2022-10-22T06:01:16.667Z,100538.72
2022-10-22T06:04:19.055Z,100547.91
2022-10-22T06:07:21.110Z,100543.34
2022-10-22T06:10:23.679Z,100547.69
2022-10-22T06:13:25.767Z,100549.91
2022-10-22T06:16:29.369Z,100554.25
2022-10-22T06:19:32.411Z,100566.88
2022-10-22T06:22:34.759Z,100562.75
2022-10-22T06:25:36.909Z,100559.97
2022-10-22T06:28:39.454Z,100557.47
2022-10-22T06:31:41.402Z,100561.69
2022-10-22T06:34:43.990Z,100564.09
2022-10-22T06:37:47.482Z,100566.97
2022-10-22T06:40:50.218Z,100576.47
2022-10-22T06:43:53.312Z,100572.84
2022-10-22T06:46:55.774Z,100580.19
2022-10-22T06:49:57.780Z,100590.22
2022-10-22T06:53:00.162Z,100597.59
2022-10-22T06:56:06.380Z,100595.03
2022-10-22T06:59:08.752Z,100580.44
2022-10-22T07:02:11.646Z,100575.13
2022-10-22T07:05:13.995Z,100573.53
2022-10-22T07:08:15.995Z,100566.53
2022-10-22T07:11:19.876Z,100567.66
2022-10-22T07:14:21.893Z,100582.53
2022-10-22T07:17:24.469Z,100575.97
2022-10-22T07:20:26.538Z,100569.56
2022-10-22T07:23:29.384Z,100571.06
2022-10-22T07:26:32.756Z,100570.28
2022-10-22T07:29:35.346Z,100566.28
2022-10-22T07:32:37.444Z,100573.31
2022-10-22T07:35:40.566Z,100564.56
2022-10-22T07:38:42.525Z,100566.06
2022-10-22T07:41:44.910Z,100563.59
2022-10-22T07:44:46.888Z,100570.41
2022-10-22T07:47:49.400Z,100562.09
2022-10-22T07:50:51.426Z,100548.06
2022-10-22T07:53:53.781Z,100570.88
2022-10-22T07:56:55.763Z,100563.53
2022-10-22T07:59:58.251Z,100567.84
2022-10-22T08:03:00.331Z,100575.22
2022-10-22T08:06:02.783Z,100575.34
2022-10-22T08:09:04.825Z,100570.75
2022-10-22T08:12:07.468Z,100565.94
2022-10-22T08:15:09.805Z,100573.53
2022-10-22T08:18:12.945Z,100576.72
2022-10-22T08:21:14.930Z,100570.31
2022-10-22T08:24:17.911Z,100567.75
2022-10-22T08:27:19.968Z,100563.28
2022-10-22T08:30:22.513Z,100572.78
2022-10-22T08:33:24.617Z,100564.22
2022-10-22T08:36:26.887Z,100565.34
2022-10-22T08:39:28.947Z,100564.06
2022-10-22T08:42:49.822Z,100572.75
2022-10-22T08:45:57.851Z,100579.69
2022-10-22T08:49:04.304Z,100573.06
2022-10-22T08:52:11.594Z,100572.69
2022-10-22T08:55:14.873Z,100577.16
2022-10-22T08:58:21.848Z,100582.34
2022-10-22T09:01:31.946Z,100569.22
2022-10-22T09:04:38.025Z,100578.53
2022-10-22T09:07:43.312Z,100567.03
2022-10-22T09:10:58.674Z,100562.09
2022-10-22T09:14:01.728Z,100575.97
2022-10-22T09:17:22.707Z,100580.06
2022-10-22T09:20:28.660Z,100577.66
2022-10-22T09:23:49.196Z,100582.91
2022-10-22T09:26:52.526Z,100567.28
2022-10-22T09:29:54.507Z,100563.25
2022-10-22T09:33:06.918Z,100562.13
2022-10-22T09:36:13.087Z,100573.50
2022-10-22T09:39:29.705Z,100579.37
2022-10-22T09:42:33.814Z,100589.37
2022-10-22T09:45:36.172Z,100587.56
2022-10-22T09:48:41.500Z,100590.34
2022-10-22T09:51:47.441Z,100580.09
2022-10-22T09:54:52.501Z,100581.75
2022-10-22T09:57:56.448Z,100571.41
2022-10-22T10:00:59.805Z,100561.97
2022-10-22T10:04:12.812Z,100575.50
2022-10-22T10:07:16.016Z,100575.47
2022-10-22T10:10:28.644Z,100570.53
2022-10-22T10:13:54.124Z,100578.56
2022-10-22T10:17:05.250Z,100563.06
2022-10-22T10:20:25.818Z,100565.75
2022-10-22T10:23:33.937Z,100552.13
2022-10-22T10:26:40.790Z,100549.88
2022-10-22T10:29:46.250Z,100559.84
2022-10-22T10:33:07.294Z,100570.34
2022-10-22T10:36:16.319Z,100557.03
2022-10-22T10:39:24.119Z,100560.56
2022-10-22T10:42:29.483Z,100551.81
2022-10-22T10:45:45.763Z,100557.34
2022-10-22T10:48:48.129Z,100550.69
2022-10-22T10:52:11.459Z,100563.69
2022-10-22T10:55:22.386Z,100568.09
2022-10-22T10:58:24.327Z,100570.00
2022-10-22T11:01:26.635Z,100568.94
2022-10-22T11:04:44.242Z,100575.69
2022-10-22T11:07:53.476Z,100577.91
2022-10-22T11:11:08.809Z,100570.19
2022-10-22T11:14:13.886Z,100569.56
2022-10-22T11:17:17.326Z,100573.09
2022-10-22T11:20:25.601Z,100570.00
2022-10-22T11:23:31.984Z,100553.53
2022-10-22T11:26:36.964Z,100547.91
2022-10-22T11:29:42.872Z,100548.84
2022-10-22T11:33:05.489Z,100551.41
2022-10-22T11:36:08.724Z,100538.06
2022-10-22T11:39:30.539Z,100527.56
2022-10-22T11:42:41.131Z,100531.25
2022-10-22T11:45:43.615Z,100525.00
2022-10-22T11:49:00.418Z,100529.00
2022-10-22T11:52:21.555Z,100525.75
2022-10-22T11:55:32.832Z,100518.78
2022-10-22T11:58:50.732Z,100515.09
2022-10-22T12:01:56.613Z,100515.84
2022-10-22T12:05:18.119Z,100520.72
2022-10-22T12:08:22.382Z,100514.41
2022-10-22T12:11:57.366Z,100511.22
2022-10-22T12:14:59.648Z,100507.38
2022-10-22T12:18:05.216Z,100504.50
2022-10-22T12:21:11.880Z,100507.78
2022-10-22T12:24:15.915Z,100504.78
2022-10-22T12:27:20.265Z,100498.50
2022-10-22T12:30:26.022Z,100495.69
2022-10-22T12:33:32.625Z,100497.59
2022-10-22T12:36:35.888Z,100494.97
2022-10-22T12:39:37.879Z,100483.78
2022-10-22T12:42:46.675Z,100495.88
2022-10-22T12:45:49.969Z,100486.47
2022-10-22T12:48:52.804Z,100489.81
2022-10-22T12:51:54.869Z,100499.22
2022-10-22T12:54:57.230Z,100507.09
2022-10-22T12:57:59.500Z,100504.56
2022-10-22T13:01:02.417Z,100504.41
2022-10-22T13:04:16.866Z,100494.00
2022-10-22T13:07:19.966Z,100502.19
2022-10-22T13:10:31.249Z,100511.19
2022-10-22T13:13:41.368Z,100505.00
2022-10-22T13:16:43.365Z,100503.44
2022-10-22T13:19:47.509Z,100498.81
2022-10-22T13:22:54.590Z,100500.78
2022-10-22T13:26:17.814Z,100505.44
2022-10-22T13:29:21.115Z,100507.69
2022-10-22T13:32:31.125Z,100499.94
2022-10-22T13:35:34.996Z,100496.69
2022-10-22T13:38:37.862Z,100495.59
2022-10-22T13:44:42.935Z,100494.41
2022-10-22T13:47:46.831Z,100502.34
2022-10-22T13:50:52.721Z,100507.84
2022-10-22T13:53:54.866Z,100520.00
2022-10-22T13:56:57.341Z,100502.72
2022-10-22T13:59:59.308Z,100513.72
2022-10-22T14:03:01.691Z,100514.97
2022-10-22T14:06:07.605Z,100507.38
2022-10-22T14:09:13.605Z,100514.97
2022-10-22T14:12:17.194Z,100512.47
2022-10-22T14:15:19.911Z,100515.25
2022-10-22T14:18:26.662Z,100511.75
2022-10-22T14:21:35.816Z,100528.22
2022-10-22T14:24:38.098Z,100527.38
2022-10-22T14:27:40.305Z,100513.44
2022-10-22T14:30:42.990Z,100519.63
2022-10-22T14:33:45.111Z,100512.06
2022-10-22T14:36:47.722Z,100501.94
2022-10-22T14:39:52.784Z,100501.78
2022-10-22T14:42:55.352Z,100510.94
2022-10-22T14:45:57.687Z,100512.78
2022-10-22T14:49:00.036Z,100517.03
2022-10-22T14:52:01.987Z,100513.38
2022-10-22T14:55:04.470Z,100517.16
2022-10-22T14:58:06.478Z,100516.16
2022-10-22T15:01:09.234Z,100524.75
2022-10-22T15:04:11.423Z,100526.97
2022-10-22T15:07:18.239Z,100519.53
2022-10-22T15:10:21.405Z,100521.91
2022-10-22T15:13:23.711Z,100527.66
2022-10-22T15:16:25.998Z,100528.50
2022-10-22T15:19:29.399Z,100525.25
2022-10-22T15:22:35.319Z,100523.44
2022-10-22T15:25:37.716Z,100526.81
2022-10-22T15:28:40.346Z,100529.56
2022-10-22T15:31:50.850Z,100530.66
2022-10-22T15:34:54.437Z,100533.22
2022-10-22T15:37:56.824Z,100528.25
2022-10-22T15:41:05.318Z,100529.63
2022-10-22T15:44:11.447Z,100529.38
2022-10-22T15:47:16.810Z,100532.44
2022-10-22T15:50:19.066Z,100540.56
2022-10-22T15:53:21.382Z,100549.09
2022-10-22T15:56:25.069Z,100542.47
2022-10-22T15:59:27.090Z,100547.50
2022-10-22T16:02:29.666Z,100562.72
2022-10-22T16:05:31.907Z,100578.25
2022-10-22T16:08:34.044Z,100581.81
2022-10-22T16:11:37.017Z,100587.91
2022-10-22T16:14:38.956Z,100593.34
2022-10-22T16:17:41.355Z,100583.94
2022-10-22T16:20:43.393Z,100595.97
2022-10-22T16:23:46.020Z,100603.09
2022-10-22T16:26:48.104Z,100610.28
2022-10-22T16:29:50.494Z,100615.72
2022-10-22T16:32:53.018Z,100633.84
2022-10-22T16:35:55.342Z,100641.44
2022-10-22T16:38:57.388Z,100653.03
2022-10-22T16:41:59.634Z,100658.22
2022-10-22T16:45:01.907Z,100655.34
2022-10-22T16:48:04.300Z,100669.81
2022-10-22T16:51:07.941Z,100669.25
2022-10-22T16:54:12.543Z,100676.34
2022-10-22T16:57:14.839Z,100669.56
2022-10-22T17:00:17.455Z,100672.84
2022-10-22T17:03:19.417Z,100679.22
2022-10-22T17:06:22.239Z,100685.88
2022-10-22T17:09:24.357Z,100683.91
2022-10-22T17:12:26.776Z,100684.25
2022-10-22T17:15:28.728Z,100681.09
2022-10-22T17:18:31.278Z,100684.25
2022-10-22T17:21:34.118Z,100687.00
2022-10-22T17:24:36.627Z,100686.88
2022-10-22T17:27:38.707Z,100668.31
2022-10-22T17:30:41.267Z,100674.34
2022-10-22T17:33:43.490Z,100681.47
2022-10-22T17:36:46.075Z,100684.69
2022-10-22T17:39:47.990Z,100697.22
2022-10-22T17:42:50.209Z,100692.16
2022-10-22T17:45:52.199Z,100694.78
2022-10-22T17:48:57.836Z,100692.88
2022-10-22T17:55:03.529Z,100723.31
2022-10-22T17:58:05.479Z,100712.41
2022-10-22T18:01:07.751Z,100700.44
2022-10-22T18:04:10.970Z,100700.88
2022-10-22T18:07:13.473Z,100709.06
2022-10-22T18:10:15.725Z,100722.84
2022-10-22T18:13:17.689Z,100724.25
2022-10-22T18:16:20.314Z,100730.75
2022-10-22T18:19:23.311Z,100728.63
2022-10-22T18:22:25.683Z,100732.47
2022-10-22T18:25:27.728Z,100732.69
2022-10-22T18:28:30.334Z,100724.63
2022-10-22T18:31:32.736Z,100726.22
2022-10-22T18:34:40.461Z,100740.09
2022-10-22T18:37:42.787Z,100745.63
2022-10-22T18:40:48.497Z,100753.16
2022-10-22T18:43:54.644Z,100745.00
2022-10-22T18:46:56.937Z,100765.63
2022-10-22T18:49:58.918Z,100774.12
2022-10-22T18:53:01.525Z,100762.66
2022-10-22T18:56:07.795Z,100762.34
2022-10-22T18:59:14.014Z,100765.00
2022-10-22T19:02:17.139Z,100756.09
2022-10-22T19:05:19.679Z,100751.53
2022-10-22T19:08:21.627Z,100760.00
2022-10-22T19:11:24.136Z,100763.47
2022-10-22T19:14:26.500Z,100773.69
2022-10-22T19:17:28.643Z,100770.53
2022-10-22T19:20:30.592Z,100766.81
2022-10-22T19:23:32.865Z,100767.22
2022-10-22T19:26:34.894Z,100781.31
2022-10-22T19:29:37.126Z,100778.19
2022-10-22T19:32:39.070Z,100779.53
2022-10-22T19:35:41.302Z,100777.78
2022-10-22T19:38:44.613Z,100784.34
2022-10-22T19:41:46.867Z,100789.31
2022-10-22T19:44:48.885Z,100794.62
2022-10-22T19:47:51.084Z,100797.88
2022-10-22T19:50:59.608Z,100801.28
2022-10-22T19:54:06.177Z,100812.16
2022-10-22T19:57:08.576Z,100815.75
2022-10-22T20:00:11.431Z,100814.28
2022-10-22T20:03:14.231Z,100820.00
2022-10-22T20:06:17.350Z,100828.03
2022-10-22T20:09:19.480Z,100827.78
2022-10-22T20:12:21.938Z,100829.03
2022-10-22T20:15:23.854Z,100830.72
2022-10-22T20:18:26.067Z,100842.16
2022-10-22T20:21:27.993Z,100849.97
2022-10-22T20:24:30.281Z,100836.47
2022-10-22T20:27:32.311Z,100837.44
2022-10-22T20:30:34.544Z,100849.81
2022-10-22T20:33:36.852Z,100855.59
2022-10-22T20:36:39.250Z,100853.81
2022-10-22T20:39:41.209Z,100845.28
2022-10-22T20:42:43.701Z,100851.13
2022-10-22T20:45:45.966Z,100842.44
2022-10-22T20:48:49.732Z,100834.94
2022-10-22T20:51:52.373Z,100849.34
2022-10-22T20:54:54.664Z,100855.84
2022-10-22T20:57:56.603Z,100852.06
2022-10-22T21:01:00.941Z,100866.44
2022-10-22T21:04:03.370Z,100867.03
2022-10-22T21:07:05.611Z,100864.28
2022-10-22T21:10:07.770Z,100865.66
2022-10-22T21:13:10.635Z,100866.34
2022-10-22T21:16:13.459Z,100871.59
2022-10-22T21:19:16.257Z,100877.16
2022-10-22T21:22:18.154Z,100884.94
2022-10-22T21:25:20.377Z,100872.56
2022-10-22T21:28:22.580Z,100881.81
2022-10-22T21:31:26.281Z,100882.28
2022-10-22T21:34:28.285Z,100883.63
2022-10-22T21:37:30.577Z,100885.63
2022-10-22T21:40:32.629Z,100881.47
2022-10-22T21:43:36.638Z,100886.59
2022-10-22T21:46:38.630Z,100887.44
2022-10-22T21:49:40.887Z,100865.75
2022-10-22T21:52:42.822Z,100869.00
2022-10-22T21:55:45.115Z,100871.09
2022-10-22T21:58:47.302Z,100872.59
2022-10-22T22:01:49.506Z,100868.25
2022-10-22T22:04:54.747Z,100871.66
2022-10-22T22:07:56.834Z,100869.19
2022-10-22T22:11:10.194Z,100873.06
2022-10-22T22:14:12.402Z,100869.84
2022-10-22T22:17:16.425Z,100873.06
2022-10-22T22:20:18.349Z,100871.19
2022-10-22T22:23:20.616Z,100871.28
2022-10-22T22:26:26.901Z,100880.25
2022-10-22T22:29:31.912Z,100872.47
2022-10-22T22:32:33.968Z,100884.28
2022-10-22T22:35:37.006Z,100875.41
2022-10-22T22:38:39.000Z,100887.22
2022-10-22T22:41:42.141Z,100892.50
2022-10-22T22:44:44.054Z,100899.31
2022-10-22T22:47:46.297Z,100907.94
2022-10-22T22:50:48.235Z,100897.66
2022-10-22T22:53:50.868Z,100903.12
2022-10-22T22:56:52.789Z,100904.16
2022-10-22T22:59:55.007Z,100911.25
2022-10-22T23:02:56.965Z,100920.41
2022-10-22T23:05:59.184Z,100921.34
2022-10-22T23:09:01.291Z,100932.09
2022-10-22T23:12:03.925Z,100934.31
2022-10-22T23:15:06.036Z,100925.72
2022-10-22T23:18:08.277Z,100927.31
2022-10-22T23:21:14.561Z,100923.72
2022-10-22T23:24:17.936Z,100919.09
2022-10-22T23:27:19.884Z,100923.72
2022-10-22T23:30:24.471Z,100909.53
2022-10-22T23:33:26.435Z,100915.78
2022-10-22T23:36:28.862Z,100918.31
2022-10-22T23:39:30.861Z,100936.16
2022-10-22T23:42:33.218Z,100933.97
2022-10-22T23:45:35.302Z,100929.81
2022-10-22T23:48:39.129Z,100930.75
2022-10-22T23:51:41.624Z,100925.69
2022-10-22T23:54:43.942Z,100926.25
2022-10-22T23:57:46.083Z,100931.19
